PAL755 WBKK-RPLL
Flight info
| Callsign | PAL755 |
|---|---|
| Flight time | N/A |
| Altitude | 37000 |
| Route | VETAG1H VETAG DCT OSANU M646 TOKON DCT LUBAN LUBAN7R |
| Aircraft | B77W/H-SDE1E2E3FGHIJ2J3J4J5M1RWXY/LB1D1 |
Departure
| Time | 2026-04-25 14:06 |
|---|---|
| Airport | Kota Kinabalu International Airport (WBKK) |
Arrival
| Time | N/A |
|---|---|
| Airport | Ninoy Aquino International Airport (RPLL) |
| Time | Latitude | Longitude | Altitude | Speed | Heading |
|---|---|---|---|---|---|
| 2026-04-25 13:49 | 5.92253 | 116.04971 | 34 ft | 0 kts | 68° |
| 2026-04-25 13:55 | 5.92247 | 116.04956 | 34 ft | 4 kts | 68° |
| 2026-04-25 13:55 | 5.92236 | 116.04932 | 34 ft | 4 kts | 58° |
| 2026-04-25 13:56 | 5.92219 | 116.04914 | 30 ft | 4 kts | 17° |
| 2026-04-25 13:56 | 5.92193 | 116.04913 | 31 ft | 4 kts | 342° |
| 2026-04-25 13:56 | 5.92185 | 116.04915 | 31 ft | 0 kts | 338° |
| 2026-04-25 13:58 | 5.92194 | 116.04912 | 31 ft | 6 kts | 338° |
| 2026-04-25 13:59 | 5.92267 | 116.04884 | 34 ft | 13 kts | 339° |
| 2026-04-25 13:59 | 5.92349 | 116.04851 | 34 ft | 13 kts | 338° |
| 2026-04-25 13:59 | 5.92399 | 116.04807 | 34 ft | 9 kts | 297° |
| 2026-04-25 13:59 | 5.92421 | 116.04776 | 33 ft | 8 kts | 324° |
| 2026-04-25 14:00 | 5.92498 | 116.04784 | 33 ft | 15 kts | 22° |
| 2026-04-25 14:00 | 5.92531 | 116.04798 | 33 ft | 15 kts | 24° |
| 2026-04-25 14:01 | 5.93135 | 116.05056 | 33 ft | 26 kts | 23° |
| 2026-04-25 14:01 | 5.93304 | 116.05127 | 33 ft | 26 kts | 22° |
| 2026-04-25 14:01 | 5.93416 | 116.05174 | 33 ft | 26 kts | 22° |
| 2026-04-25 14:01 | 5.93576 | 116.05241 | 33 ft | 25 kts | 22° |
| 2026-04-25 14:02 | 5.93735 | 116.05308 | 33 ft | 25 kts | 22° |
| 2026-04-25 14:02 | 5.93893 | 116.05375 | 33 ft | 25 kts | 23° |
| 2026-04-25 14:03 | 5.94709 | 116.05720 | 33 ft | 21 kts | 22° |
| 2026-04-25 14:03 | 5.94819 | 116.05766 | 33 ft | 14 kts | 22° |
| 2026-04-25 14:04 | 5.94889 | 116.05773 | 33 ft | 10 kts | 338° |
| 2026-04-25 14:04 | 5.94927 | 116.05718 | 32 ft | 10 kts | 292° |
| 2026-04-25 14:04 | 5.94943 | 116.05652 | 34 ft | 10 kts | 256° |
| 2026-04-25 14:04 | 5.94889 | 116.05610 | 34 ft | 10 kts | 205° |
| 2026-04-25 14:05 | 5.94817 | 116.05580 | 34 ft | 18 kts | 202° |
| 2026-04-25 14:05 | 5.94538 | 116.05462 | 34 ft | 80 kts | 202° |
| 2026-04-25 14:05 | 5.93787 | 116.05145 | 34 ft | 152 kts | 203° |
| 2026-04-25 14:05 | 5.92675 | 116.04684 | 326 ft | 178 kts | 201° |
| 2026-04-25 14:06 | 5.91522 | 116.04214 | 957 ft | 187 kts | 200° |
| 2026-04-25 14:06 | 5.90237 | 116.03694 | 1349 ft | 208 kts | 201° |
| 2026-04-25 14:06 | 5.88881 | 116.03141 | 1913 ft | 217 kts | 200° |
| 2026-04-25 14:06 | 5.87466 | 116.02562 | 2574 ft | 221 kts | 200° |
| 2026-04-25 14:07 | 5.86041 | 116.01980 | 3298 ft | 222 kts | 200° |
| 2026-04-25 14:07 | 5.84552 | 116.01372 | 3695 ft | 244 kts | 200° |
| 2026-04-25 14:07 | 5.82874 | 116.00810 | 3994 ft | 262 kts | 184° |
| 2026-04-25 14:07 | 5.81103 | 116.01172 | 4642 ft | 266 kts | 147° |
| 2026-04-25 14:08 | 5.79874 | 116.02534 | 5436 ft | 268 kts | 112° |
| 2026-04-25 14:08 | 5.79653 | 116.04371 | 6282 ft | 271 kts | 79° |
| 2026-04-25 14:08 | 5.80446 | 116.06084 | 7026 ft | 273 kts | 59° |
| 2026-04-25 14:08 | 5.81288 | 116.07769 | 7582 ft | 278 kts | 75° |
| 2026-04-25 14:09 | 5.81674 | 116.09677 | 8367 ft | 280 kts | 81° |
| 2026-04-25 14:09 | 5.82059 | 116.11593 | 9249 ft | 280 kts | 75° |
| 2026-04-25 14:09 | 5.82728 | 116.13428 | 10057 ft | 282 kts | 66° |
| 2026-04-25 14:09 | 5.83027 | 116.14031 | 10300 ft | 284 kts | 63° |
| 2026-04-25 14:10 | 5.84733 | 116.16142 | 10730 ft | 315 kts | 35° |
| 2026-04-25 14:10 | 5.87449 | 116.17560 | 10965 ft | 345 kts | 28° |
| 2026-04-25 14:10 | 5.89658 | 116.18710 | 11179 ft | 368 kts | 30° |
| 2026-04-25 14:10 | 5.91921 | 116.19925 | 11765 ft | 379 kts | 30° |
| 2026-04-25 14:11 | 5.94261 | 116.21196 | 12546 ft | 385 kts | 30° |
| 2026-04-25 14:11 | 5.96622 | 116.22495 | 13446 ft | 389 kts | 30° |
| 2026-04-25 14:11 | 5.99007 | 116.23811 | 14200 ft | 394 kts | 31° |
| 2026-04-25 14:11 | 6.01418 | 116.25142 | 14977 ft | 398 kts | 30° |
| 2026-04-25 14:12 | 6.03864 | 116.26492 | 15680 ft | 403 kts | 30° |
| 2026-04-25 14:12 | 6.06338 | 116.27856 | 16396 ft | 408 kts | 30° |
| 2026-04-25 14:12 | 6.08844 | 116.29237 | 17097 ft | 413 kts | 30° |
| 2026-04-25 14:12 | 6.11378 | 116.30633 | 17798 ft | 418 kts | 30° |
| 2026-04-25 14:13 | 6.13908 | 116.32027 | 18441 ft | 423 kts | 30° |
| 2026-04-25 14:13 | 6.16498 | 116.33454 | 19016 ft | 427 kts | 30° |
| 2026-04-25 14:13 | 6.19113 | 116.34895 | 19632 ft | 431 kts | 30° |
| 2026-04-25 14:13 | 6.21750 | 116.36347 | 20225 ft | 434 kts | 30° |
| 2026-04-25 14:14 | 6.24412 | 116.37815 | 20798 ft | 438 kts | 30° |
| 2026-04-25 14:14 | 6.27102 | 116.39290 | 21384 ft | 442 kts | 29° |
| 2026-04-25 14:14 | 6.29914 | 116.40587 | 21933 ft | 448 kts | 23° |
| 2026-04-25 14:14 | 6.32847 | 116.41705 | 22497 ft | 452 kts | 21° |
| 2026-04-25 14:15 | 6.35822 | 116.42771 | 23054 ft | 456 kts | 21° |
| 2026-04-25 14:15 | 6.36798 | 116.43120 | 23230 ft | 457 kts | 21° |
| 2026-04-25 14:15 | 6.41833 | 116.44970 | 24014 ft | 463 kts | 22° |
| 2026-04-25 14:15 | 6.44824 | 116.46108 | 24453 ft | 466 kts | 22° |
| 2026-04-25 14:16 | 6.47862 | 116.47280 | 24894 ft | 470 kts | 22° |
| 2026-04-25 14:16 | 6.50921 | 116.48467 | 25352 ft | 472 kts | 23° |
| 2026-04-25 14:16 | 6.53996 | 116.49659 | 25791 ft | 475 kts | 22° |
| 2026-04-25 14:16 | 6.57094 | 116.50857 | 26199 ft | 479 kts | 23° |
| 2026-04-25 14:17 | 6.60121 | 116.52251 | 26574 ft | 479 kts | 32° |
| 2026-04-25 14:17 | 6.62913 | 116.54098 | 26933 ft | 482 kts | 37° |
| 2026-04-25 14:17 | 6.65597 | 116.56062 | 27335 ft | 485 kts | 38° |
| 2026-04-25 14:17 | 6.68310 | 116.58090 | 27707 ft | 488 kts | 38° |
| 2026-04-25 14:18 | 6.71056 | 116.60125 | 28064 ft | 492 kts | 37° |
| 2026-04-25 14:18 | 6.73838 | 116.62152 | 28413 ft | 495 kts | 37° |
| 2026-04-25 14:18 | 6.76651 | 116.64167 | 28773 ft | 498 kts | 36° |
| 2026-04-25 14:18 | 6.79491 | 116.66178 | 29118 ft | 501 kts | 36° |
| 2026-04-25 14:19 | 6.82348 | 116.68188 | 29428 ft | 503 kts | 36° |
| 2026-04-25 14:19 | 6.85232 | 116.70212 | 29738 ft | 506 kts | 36° |
| 2026-04-25 14:19 | 6.88117 | 116.72236 | 30131 ft | 506 kts | 36° |
| 2026-04-25 14:19 | 6.90960 | 116.74233 | 30529 ft | 504 kts | 36° |
| 2026-04-25 14:20 | 6.93834 | 116.76253 | 30954 ft | 503 kts | 36° |
| 2026-04-25 14:20 | 6.94801 | 116.76933 | 31098 ft | 503 kts | 36° |
| 2026-04-25 14:20 | 6.99558 | 116.80283 | 31768 ft | 502 kts | 36° |
| 2026-04-25 14:20 | 7.02414 | 116.82296 | 32171 ft | 501 kts | 36° |
| 2026-04-25 14:21 | 7.05270 | 116.84308 | 32579 ft | 501 kts | 36° |
| 2026-04-25 14:21 | 7.08121 | 116.86317 | 32990 ft | 500 kts | 36° |
| 2026-04-25 14:21 | 7.10965 | 116.88322 | 33416 ft | 499 kts | 36° |
| 2026-04-25 14:21 | 7.13766 | 116.90296 | 33864 ft | 497 kts | 36° |
| 2026-04-25 14:22 | 7.16594 | 116.92290 | 34233 ft | 496 kts | 36° |
| 2026-04-25 14:22 | 7.19419 | 116.94283 | 34532 ft | 496 kts | 36° |
| 2026-04-25 14:22 | 7.22248 | 116.96277 | 34841 ft | 496 kts | 36° |
| 2026-04-25 14:22 | 7.25074 | 116.98271 | 35163 ft | 496 kts | 36° |
| 2026-04-25 14:23 | 7.27899 | 117.00264 | 35494 ft | 495 kts | 36° |
| 2026-04-25 14:23 | 7.30721 | 117.02255 | 35817 ft | 495 kts | 36° |
| 2026-04-25 14:23 | 7.33535 | 117.04241 | 36119 ft | 495 kts | 36° |
| 2026-04-25 14:23 | 7.36354 | 117.06230 | 36421 ft | 494 kts | 36° |
| 2026-04-25 14:24 | 7.39132 | 117.08192 | 36728 ft | 494 kts | 36° |
| 2026-04-25 14:24 | 7.41951 | 117.10182 | 36857 ft | 497 kts | 36° |
| 2026-04-25 14:24 | 7.44792 | 117.12189 | 36907 ft | 500 kts | 36° |
| 2026-04-25 14:25 | 7.49711 | 117.15663 | 36918 ft | 499 kts | 36° |